createdAt,value
2023-03-28T00:01:14.550Z,11.43
2023-03-28T00:04:17.549Z,10.17
2023-03-28T00:07:20.941Z,6.65
2023-03-28T00:10:23.833Z,10.13
2023-03-28T00:13:29.880Z,8.85
2023-03-28T00:16:34.792Z,9.05
2023-03-28T00:19:40.927Z,8.95
2023-03-28T00:22:44.274Z,7.07
2023-03-28T00:25:47.128Z,7.82
2023-03-28T00:28:49.453Z,8.15
2023-03-28T00:31:51.929Z,8.23
2023-03-28T00:34:54.320Z,7.63
2023-03-28T00:37:58.123Z,9.95
2023-03-28T00:44:38.856Z,9.23
2023-03-28T00:47:53.063Z,9.55
2023-03-28T00:54:09.649Z,9.07
2023-03-28T00:57:13.188Z,11.05
2023-03-28T01:00:18.930Z,8.98
2023-03-28T01:03:27.779Z,9.35
2023-03-28T01:06:33.393Z,8.77
2023-03-28T01:09:36.402Z,8.30
2023-03-28T01:12:39.704Z,8.18
2023-03-28T01:18:51.628Z,6.68
2023-03-28T01:22:08.117Z,7.53
2023-03-28T01:25:33.553Z,7.55
2023-03-28T01:29:20.899Z,8.23
2023-03-28T01:32:56.216Z,7.95
2023-03-28T01:36:33.845Z,7.45
2023-03-28T01:39:36.978Z,6.97
2023-03-28T01:43:03.589Z,7.70
2023-03-28T01:46:23.765Z,8.02
2023-03-28T01:49:39.812Z,7.15
2023-03-28T01:52:51.356Z,8.75
2023-03-28T01:56:12.246Z,8.68
2023-03-28T01:59:41.047Z,8.05
2023-03-28T02:03:19.617Z,8.13
2023-03-28T02:06:29.658Z,7.97
2023-03-28T02:09:36.032Z,7.88
2023-03-28T02:12:59.901Z,9.00
2023-03-28T02:20:09.156Z,8.23
2023-03-28T02:23:42.649Z,7.55
2023-03-28T02:27:11.183Z,8.40
2023-03-28T02:30:34.273Z,8.70
2023-03-28T02:33:45.011Z,9.30
2023-03-28T02:37:03.027Z,10.07
2023-03-28T02:40:21.042Z,9.15
2023-03-28T02:43:45.226Z,8.18
2023-03-28T02:47:17.988Z,9.07
2023-03-28T02:50:25.677Z,8.02
2023-03-28T02:53:33.140Z,7.97
2023-03-28T02:56:44.306Z,8.73
2023-03-28T03:00:12.841Z,8.07
2023-03-28T03:03:17.316Z,8.63
2023-03-28T03:06:19.852Z,9.10
2023-03-28T03:09:23.212Z,8.57
2023-03-28T03:12:25.579Z,6.25
2023-03-28T03:15:32.195Z,8.25
2023-03-28T03:18:40.489Z,8.05
2023-03-28T03:21:42.989Z,9.43
2023-03-28T03:24:46.557Z,9.53
2023-03-28T03:27:49.056Z,7.82
2023-03-28T03:30:55.104Z,13.00
2023-03-28T03:34:14.983Z,26.05
2023-03-28T03:37:22.630Z,37.08
2023-03-28T03:40:25.146Z,20.92
2023-03-28T03:43:28.968Z,13.07
2023-03-28T03:46:31.461Z,17.98
2023-03-28T03:49:34.025Z,8.45
2023-03-28T03:52:38.966Z,8.00
2023-03-28T03:55:41.997Z,8.20
2023-03-28T03:58:44.719Z,8.70
2023-03-28T04:01:47.176Z,8.23
2023-03-28T04:05:12.607Z,8.18
2023-03-28T04:08:22.751Z,8.80
2023-03-28T04:11:25.425Z,8.82
2023-03-28T04:14:27.829Z,8.07
2023-03-28T04:17:50.434Z,8.57
2023-03-28T04:21:01.640Z,13.15
2023-03-28T04:24:21.151Z,8.13
2023-03-28T04:27:33.036Z,7.63
2023-03-28T04:30:36.287Z,9.55
2023-03-28T04:34:25.835Z,10.77
2023-03-28T04:37:47.856Z,9.98
2023-03-28T04:40:53.769Z,10.67
2023-03-28T04:44:23.301Z,9.90
2023-03-28T04:47:33.755Z,10.02
2023-03-28T04:50:36.422Z,10.88
2023-03-28T04:53:39.647Z,8.70
2023-03-28T04:57:00.602Z,10.77
2023-03-28T05:00:16.892Z,9.85
2023-03-28T05:03:31.975Z,9.73
2023-03-28T05:06:39.001Z,8.40
2023-03-28T05:09:41.445Z,6.68
2023-03-28T05:12:44.019Z,7.57
2023-03-28T05:15:47.246Z,6.82
2023-03-28T05:19:10.639Z,6.68
2023-03-28T05:22:42.456Z,6.35
2023-03-28T05:25:45.029Z,5.50
2023-03-28T05:28:47.431Z,5.97
2023-03-28T05:31:50.910Z,5.00
2023-03-28T05:34:59.509Z,5.45
2023-03-28T05:38:05.805Z,5.15
2023-03-28T05:41:08.294Z,5.13
2023-03-28T05:44:10.804Z,4.65
2023-03-28T05:47:33.295Z,4.20
2023-03-28T05:50:36.619Z,3.00
2023-03-28T05:53:42.030Z,4.47
2023-03-28T05:56:46.246Z,3.90
2023-03-28T05:59:49.649Z,4.20
2023-03-28T06:02:55.573Z,4.18
2023-03-28T06:06:08.443Z,3.95
2023-03-28T06:09:12.795Z,3.55
2023-03-28T06:12:28.297Z,3.78
2023-03-28T06:15:31.158Z,3.40
2023-03-28T06:18:34.201Z,3.08
2023-03-28T06:21:36.639Z,2.40
2023-03-28T06:24:41.900Z,2.65
2023-03-28T06:27:44.536Z,2.90
2023-03-28T06:30:51.135Z,2.60
2023-03-28T06:33:54.072Z,2.40
2023-03-28T06:40:04.320Z,2.15
2023-03-28T06:43:06.704Z,1.35
2023-03-28T06:46:22.462Z,2.00
2023-03-28T06:49:24.993Z,1.40
2023-03-28T06:52:46.303Z,1.80
2023-03-28T06:55:51.341Z,1.60
2023-03-28T06:58:54.202Z,1.75
2023-03-28T07:02:00.742Z,1.30
2023-03-28T07:05:08.427Z,1.50
2023-03-28T07:08:13.185Z,1.35
2023-03-28T07:11:15.633Z,1.40
2023-03-28T07:14:20.672Z,1.60
2023-03-28T07:17:23.229Z,1.70
2023-03-28T07:20:26.196Z,2.03
2023-03-28T07:23:29.198Z,1.65
2023-03-28T07:26:31.969Z,1.30
2023-03-28T07:29:34.390Z,1.30
2023-03-28T07:32:47.858Z,1.48
2023-03-28T07:35:56.002Z,1.42
2023-03-28T07:38:58.591Z,1.67
2023-03-28T07:42:01.549Z,0.95
2023-03-28T07:45:04.548Z,1.23
2023-03-28T07:48:07.458Z,1.40
2023-03-28T07:51:11.117Z,1.42
2023-03-28T07:54:17.922Z,1.30
2023-03-28T07:57:22.201Z,1.30
2023-03-28T08:00:33.725Z,1.35
2023-03-28T08:07:31.842Z,1.42
2023-03-28T08:10:37.059Z,1.50
2023-03-28T08:13:39.744Z,1.65
2023-03-28T08:16:52.252Z,1.40
2023-03-28T08:19:54.771Z,1.47
2023-03-28T08:23:03.318Z,1.60
2023-03-28T08:26:24.799Z,1.95
2023-03-28T08:29:31.582Z,1.80
2023-03-28T08:32:34.477Z,1.77
2023-03-28T08:35:38.452Z,1.77
2023-03-28T08:39:00.661Z,1.50
2023-03-28T08:45:18.024Z,1.50
2023-03-28T08:48:25.144Z,2.13
2023-03-28T08:51:35.745Z,1.70
2023-03-28T08:54:46.097Z,1.48
2023-03-28T08:57:53.372Z,1.40
2023-03-28T09:00:55.849Z,1.35
2023-03-28T09:03:58.285Z,1.40
2023-03-28T09:07:46.539Z,1.33
2023-03-28T09:11:00.401Z,1.48
2023-03-28T09:14:29.708Z,1.75
2023-03-28T09:18:11.945Z,1.30
2023-03-28T09:21:27.826Z,1.00
2023-03-28T09:25:01.324Z,1.05
2023-03-28T09:28:15.541Z,1.42
2023-03-28T09:31:21.062Z,1.17
2023-03-28T09:34:27.682Z,1.30
2023-03-28T09:37:41.126Z,0.90
2023-03-28T09:40:47.777Z,1.20
2023-03-28T09:43:59.242Z,1.40
2023-03-28T09:47:30.968Z,1.05
2023-03-28T09:50:39.089Z,1.13
2023-03-28T09:53:42.585Z,0.90
2023-03-28T09:56:47.608Z,1.20
2023-03-28T10:00:06.024Z,1.20
2023-03-28T10:03:23.636Z,1.55
2023-03-28T10:06:29.654Z,1.40
2023-03-28T10:09:34.723Z,1.17
2023-03-28T10:12:42.126Z,1.40
2023-03-28T10:15:46.998Z,1.40
2023-03-28T10:19:11.683Z,0.90
2023-03-28T10:22:35.376Z,1.10
2023-03-28T10:25:44.631Z,1.10
2023-03-28T10:28:47.068Z,1.10
2023-03-28T10:31:51.077Z,1.40
2023-03-28T10:35:26.651Z,0.98
2023-03-28T10:38:49.546Z,1.33
2023-03-28T10:42:12.051Z,1.58
2023-03-28T10:45:38.525Z,1.63
2023-03-28T10:48:47.699Z,1.77
2023-03-28T10:51:50.647Z,1.70
2023-03-28T10:54:59.729Z,9.02
2023-03-28T10:58:33.593Z,6.75
2023-03-28T11:01:55.731Z,1.70
2023-03-28T11:05:04.433Z,1.55
2023-03-28T11:09:02.185Z,1.90
2023-03-28T11:12:43.844Z,1.40
2023-03-28T11:16:06.278Z,1.67
2023-03-28T11:19:29.255Z,1.40
2023-03-28T11:23:05.573Z,0.82
2023-03-28T11:26:40.260Z,2.00
2023-03-28T11:30:25.373Z,1.58
2023-03-28T11:33:53.701Z,0.88
2023-03-28T11:37:16.101Z,1.20
2023-03-28T11:40:24.890Z,1.13
2023-03-28T11:43:52.484Z,1.55
2023-03-28T11:47:03.249Z,1.75
2023-03-28T11:50:19.609Z,1.50
2023-03-28T11:53:50.947Z,1.50
2023-03-28T11:57:05.044Z,1.42
2023-03-28T12:00:33.766Z,0.77
2023-03-28T12:03:57.199Z,1.10
2023-03-28T12:07:03.451Z,1.20
2023-03-28T12:10:24.603Z,1.20
2023-03-28T12:13:46.209Z,1.55
2023-03-28T12:16:51.890Z,0.90
2023-03-28T12:19:56.612Z,2.13
2023-03-28T12:23:05.189Z,1.10
2023-03-28T12:26:39.380Z,1.40
2023-03-28T12:30:21.216Z,1.00
2023-03-28T12:33:36.203Z,0.90
2023-03-28T12:36:59.295Z,0.95
2023-03-28T12:40:13.114Z,0.63
2023-03-28T12:43:18.138Z,1.25
2023-03-28T12:46:48.347Z,1.48
2023-03-28T12:49:56.529Z,1.73
2023-03-28T12:52:59.600Z,1.45
2023-03-28T12:56:16.470Z,1.50
2023-03-28T12:59:57.551Z,1.40
2023-03-28T13:03:32.161Z,1.38
2023-03-28T13:06:48.903Z,1.30
2023-03-28T13:10:02.073Z,1.70
2023-03-28T13:13:14.541Z,1.30
2023-03-28T13:16:24.601Z,1.42
2023-03-28T13:19:44.419Z,1.35
2023-03-28T13:22:51.035Z,2.78
2023-03-28T13:26:11.576Z,1.50
2023-03-28T13:29:14.146Z,1.10
2023-03-28T13:32:18.763Z,1.10
2023-03-28T13:35:50.485Z,1.27
2023-03-28T13:38:56.070Z,1.65
2023-03-28T13:41:59.390Z,1.30
2023-03-28T13:45:23.211Z,1.10
2023-03-28T13:48:32.891Z,1.30
2023-03-28T13:52:13.836Z,1.10
2023-03-28T13:55:24.475Z,1.35
2023-03-28T13:58:26.884Z,1.02
2023-03-28T14:02:00.068Z,2.08
2023-03-28T14:05:16.065Z,1.30
2023-03-28T14:08:18.474Z,1.30
2023-03-28T14:11:41.177Z,1.27
2023-03-28T14:14:47.067Z,1.13
2023-03-28T14:17:50.859Z,1.10
2023-03-28T14:20:54.966Z,1.30
2023-03-28T14:27:14.008Z,1.33
2023-03-28T14:30:19.482Z,1.38
2023-03-28T14:33:22.110Z,1.20
2023-03-28T14:36:25.232Z,1.10
2023-03-28T14:39:30.181Z,1.60
2023-03-28T14:42:33.358Z,1.63
2023-03-28T14:45:38.217Z,1.23
2023-03-28T14:48:42.253Z,1.25
2023-03-28T14:51:47.459Z,1.38
2023-03-28T14:54:50.116Z,1.20
2023-03-28T14:57:53.967Z,1.42
2023-03-28T15:01:00.373Z,1.10
2023-03-28T15:04:07.474Z,1.27
2023-03-28T15:07:20.984Z,0.95
2023-03-28T15:10:25.726Z,1.00
2023-03-28T15:13:34.391Z,1.15
2023-03-28T15:16:40.859Z,0.80
2023-03-28T15:19:43.504Z,1.27
2023-03-28T15:22:51.248Z,1.70
2023-03-28T15:25:54.422Z,1.13
2023-03-28T15:28:58.284Z,1.13
2023-03-28T15:32:07.040Z,1.65
2023-03-28T15:35:25.073Z,1.52
2023-03-28T15:38:28.449Z,1.33
2023-03-28T15:41:40.121Z,1.02
2023-03-28T15:44:43.748Z,2.90
2023-03-28T15:47:48.543Z,1.15
2023-03-28T15:50:54.256Z,1.13
2023-03-28T15:54:00.171Z,1.60
2023-03-28T15:57:03.313Z,1.50
2023-03-28T16:00:07.082Z,1.20
2023-03-28T16:03:33.036Z,1.90
2023-03-28T16:06:42.088Z,1.30
2023-03-28T16:09:44.793Z,1.30
2023-03-28T16:12:47.941Z,1.25
2023-03-28T16:16:17.593Z,1.10
2023-03-28T16:19:35.650Z,1.40
2023-03-28T16:22:38.055Z,1.50
2023-03-28T16:25:41.693Z,0.98
2023-03-28T16:28:44.235Z,1.27
2023-03-28T16:31:46.902Z,1.45
2023-03-28T16:34:50.796Z,1.48
2023-03-28T16:37:53.507Z,1.77
2023-03-28T16:40:56.212Z,1.15
2023-03-28T16:43:58.647Z,1.50
2023-03-28T16:47:01.836Z,1.30
2023-03-28T16:50:04.631Z,1.20
2023-03-28T16:53:07.083Z,1.42
2023-03-28T16:56:12.151Z,2.00
2023-03-28T16:59:14.750Z,1.85
2023-03-28T17:02:17.389Z,1.67
2023-03-28T17:05:19.860Z,1.40
2023-03-28T17:08:22.418Z,1.52
2023-03-28T17:11:26.330Z,1.40
2023-03-28T17:14:28.890Z,1.60
2023-03-28T17:17:31.306Z,1.77
2023-03-28T17:20:33.760Z,1.95
2023-03-28T17:23:38.182Z,1.90
2023-03-28T17:26:40.742Z,1.73
2023-03-28T17:29:43.132Z,2.35
2023-03-28T17:32:45.733Z,1.70
2023-03-28T17:35:48.261Z,1.95
2023-03-28T17:38:52.269Z,1.73
2023-03-28T17:41:54.733Z,2.00
2023-03-28T17:44:57.418Z,2.05
2023-03-28T17:48:00.096Z,2.25
2023-03-28T17:51:02.801Z,2.60
2023-03-28T17:54:12.044Z,2.53
2023-03-28T17:57:14.649Z,2.60
2023-03-28T18:00:17.608Z,3.08
2023-03-28T18:03:20.147Z,3.57
2023-03-28T18:06:48.340Z,3.05
2023-03-28T18:09:50.896Z,3.35
2023-03-28T18:12:53.355Z,3.63
2023-03-28T18:15:56.091Z,2.60
2023-03-28T18:18:58.700Z,3.00
2023-03-28T18:22:01.140Z,2.90
2023-03-28T18:25:03.738Z,3.08
2023-03-28T18:28:06.835Z,3.42
2023-03-28T18:31:15.543Z,3.83
2023-03-28T18:34:18.056Z,5.22
2023-03-28T18:37:20.361Z,7.15
2023-03-28T18:40:23.008Z,11.35
2023-03-28T18:43:25.615Z,5.50
2023-03-28T18:46:29.960Z,6.25
2023-03-28T18:49:32.924Z,6.00
2023-03-28T18:52:35.338Z,6.93
2023-03-28T18:55:37.703Z,8.38
2023-03-28T18:58:40.130Z,9.45
2023-03-28T19:01:45.026Z,8.20
2023-03-28T19:04:47.812Z,6.68
2023-03-28T19:07:50.100Z,6.38
2023-03-28T19:10:54.073Z,5.60
2023-03-28T19:13:56.594Z,4.32
2023-03-28T19:16:59.094Z,4.95
2023-03-28T19:20:06.093Z,4.28
2023-03-28T19:23:08.788Z,4.85
2023-03-28T19:26:12.836Z,4.00
2023-03-28T19:29:15.122Z,3.85
2023-03-28T19:32:17.399Z,5.05
2023-03-28T19:35:19.708Z,4.60
2023-03-28T19:38:23.670Z,4.57
2023-03-28T19:41:26.623Z,4.50
2023-03-28T19:44:28.990Z,4.57
2023-03-28T19:47:31.440Z,4.90
2023-03-28T19:50:35.858Z,4.85
2023-03-28T19:53:38.441Z,3.70
2023-03-28T19:59:44.704Z,8.18
2023-03-28T20:02:47.412Z,8.15
2023-03-28T20:05:49.852Z,9.43
2023-03-28T20:08:52.494Z,9.05
2023-03-28T20:11:55.325Z,8.02
2023-03-28T20:14:57.808Z,6.43
2023-03-28T20:18:01.602Z,8.57
2023-03-28T20:21:06.954Z,6.95
2023-03-28T20:24:11.039Z,7.25
2023-03-28T20:27:13.292Z,7.07
2023-03-28T20:30:15.995Z,5.88
2023-03-28T20:33:18.508Z,6.63
2023-03-28T20:36:21.225Z,5.65
2023-03-28T20:39:27.840Z,6.55
2023-03-28T20:42:30.217Z,6.18
2023-03-28T20:45:34.038Z,6.18
2023-03-28T20:51:39.832Z,6.07
2023-03-28T20:54:42.122Z,6.77
2023-03-28T20:57:44.474Z,6.25
2023-03-28T21:00:47.770Z,6.57
2023-03-28T21:03:50.481Z,5.50
2023-03-28T21:06:52.891Z,6.90
2023-03-28T21:09:55.896Z,5.97
2023-03-28T21:12:58.284Z,7.90
2023-03-28T21:16:00.692Z,8.10
2023-03-28T21:19:03.930Z,7.57
2023-03-28T21:22:06.419Z,6.15
2023-03-28T21:25:10.664Z,7.57
2023-03-28T21:28:14.130Z,7.85
2023-03-28T21:31:20.900Z,7.18
2023-03-28T21:34:30.992Z,6.63
2023-03-28T21:37:33.472Z,6.57
2023-03-28T21:40:36.022Z,5.55
2023-03-28T21:43:38.831Z,5.72
2023-03-28T21:46:41.190Z,6.13
2023-03-28T21:49:46.249Z,5.45
2023-03-28T21:52:48.595Z,5.22
2023-03-28T21:55:51.276Z,5.57
2023-03-28T21:58:53.665Z,5.30
2023-03-28T22:01:56.422Z,5.35
2023-03-28T22:04:58.861Z,4.87
2023-03-28T22:08:01.863Z,5.47
2023-03-28T22:11:14.028Z,6.13
2023-03-28T22:14:16.356Z,5.55
2023-03-28T22:17:18.722Z,6.13
2023-03-28T22:20:22.444Z,6.72
2023-03-28T22:26:27.584Z,5.75
2023-03-28T22:29:30.309Z,5.55
2023-03-28T22:32:32.982Z,5.68
2023-03-28T22:35:35.422Z,5.47
2023-03-28T22:38:37.833Z,5.55
2023-03-28T22:41:45.023Z,5.50
2023-03-28T22:44:48.259Z,6.15
2023-03-28T22:47:51.370Z,5.65
2023-03-28T22:50:54.041Z,5.10
2023-03-28T22:54:00.326Z,5.22
2023-03-28T22:57:05.728Z,4.43
2023-03-28T23:00:09.821Z,4.07
2023-03-28T23:03:12.389Z,4.45
2023-03-28T23:06:14.671Z,4.07
2023-03-28T23:09:18.817Z,4.57
2023-03-28T23:12:21.362Z,4.10
2023-03-28T23:15:23.954Z,4.28
2023-03-28T23:18:26.483Z,4.20
2023-03-28T23:21:29.366Z,4.28
2023-03-28T23:24:31.861Z,4.43
2023-03-28T23:27:34.266Z,4.35
2023-03-28T23:30:39.236Z,4.72
2023-03-28T23:33:41.782Z,4.85
2023-03-28T23:36:46.276Z,5.22
2023-03-28T23:39:48.683Z,4.93
2023-03-28T23:42:51.281Z,4.75
2023-03-28T23:45:53.663Z,4.05
2023-03-28T23:48:56.204Z,4.38
2023-03-28T23:51:58.530Z,4.30
2023-03-28T23:55:01.143Z,4.30
2023-03-28T23:58:04.720Z,4.40
